Time;durP1;ratioP1;P1;durP2;ratioP2;P2;SDS_P1;SDS_P2;PMS_P1;PMS_P2;Temp;Humidity;BMP_temperature;BMP_pressure;BME280_temperature;BME280_humidity;BME280_pressure;Samples;Min_cycle;Max_cycle;Signal;HPM_P1;HPM_P2
2023/05/15 00:01:42;;;;;;;0.10;0.10;;;;;;;16.97;69.45;101590.56;5052850;28;20089;-62
2023/05/15 00:04:07;;;;;;;0.20;0.20;;;;;;;17.04;69.11;101585.75;5075182;28;20047;-62
2023/05/15 00:06:33;;;;;;;0.10;0.10;;;;;;;17.31;67.36;101589.44;5084814;28;20052;-63
2023/05/15 00:08:58;;;;;;;0.10;0.10;;;;;;;18.01;64.29;101584.03;5082075;28;20111;-63
2023/05/15 00:11:26;;;;;;;0.17;0.17;;;;;;;17.09;67.96;101580.44;5092284;28;20028;-63
2023/05/15 00:13:52;;;;;;;0.20;0.20;;;;;;;17.18;67.93;101572.66;5092167;28;20064;-65
2023/05/15 00:16:17;;;;;;;0.20;0.20;;;;;;;17.09;68.68;101563.31;5077705;28;20048;-63
2023/05/15 00:18:43;;;;;;;0.20;0.20;;;;;;;17.31;66.86;101564.97;5071652;28;20062;-63
2023/05/15 00:21:08;;;;;;;0.20;0.20;;;;;;;17.65;66.27;101560.25;5090515;28;20077;-62
2023/05/15 00:23:34;;;;;;;0.20;0.20;;;;;;;17.42;65.38;101564.03;5091845;28;20024;-62
2023/05/15 00:25:59;;;;;;;0.20;0.20;;;;;;;18.01;64.19;101556.84;5091957;28;20036;-62
2023/05/15 00:28:25;;;;;;;0.10;0.10;;;;;;;17.62;66.01;101552.63;5073348;28;20407;-64
2023/05/15 00:30:51;;;;;;;0.20;0.20;;;;;;;17.98;64.73;101551.09;5091670;28;20042;-63
2023/05/15 00:33:16;;;;;;;0.20;0.20;;;;;;;18.26;62.87;101543.47;5092662;28;20097;-62
2023/05/15 00:35:42;;;;;;;0.20;0.20;;;;;;;17.83;64.62;101553.66;5085007;28;20028;-62
2023/05/15 00:38:07;;;;;;;0.20;0.20;;;;;;;17.49;66.05;101550.28;5071292;28;20554;-64
2023/05/15 00:40:34;;;;;;;0.10;0.10;;;;;;;17.78;65.12;101549.00;5071313;28;20028;-62
2023/05/15 00:43:00;;;;;;;0.13;0.13;;;;;;;17.68;64.49;101550.78;5071317;28;20028;-62
2023/05/15 00:45:27;;;;;;;0.10;0.10;;;;;;;17.61;64.93;101550.97;5071443;28;20017;-63
2023/05/15 00:47:56;;;;;;;0.13;0.13;;;;;;;16.95;68.04;101562.84;5071625;28;20127;-63
2023/05/15 00:50:23;;;;;;;0.20;0.20;;;;;;;16.60;69.76;101555.00;5070954;28;20120;-62
2023/05/15 00:52:49;;;;;;;0.20;0.20;;;;;;;17.68;65.29;101540.72;5071428;28;20094;-62
2023/05/15 00:55:14;;;;;;;0.20;0.20;;;;;;;17.29;67.63;101539.97;5070570;28;20121;-62
2023/05/15 00:57:42;;;;;;;0.25;0.25;;;;;;;16.93;68.72;101539.72;5071227;28;20033;-62
2023/05/15 01:00:09;;;;;;;0.10;0.10;;;;;;;16.29;70.95;101543.84;5071583;28;20078;-63
2023/05/15 01:02:35;;;;;;;0.17;0.17;;;;;;;16.15;72.67;101539.81;5071251;28;20047;-63
2023/05/15 01:05:01;;;;;;;0.30;0.30;;;;;;;16.38;71.50;101537.75;5071040;28;20162;-62
2023/05/15 01:07:32;;;;;;;0.20;0.20;;;;;;;16.75;70.10;101539.97;5071243;28;20486;-63
2023/05/15 01:09:58;;;;;;;;;;;;;;;16.97;69.27;101541.69;5072059;28;20497;-62
2023/05/15 01:12:25;;;;;;;0.20;0.20;;;;;;;16.93;68.88;101535.13;5072029;28;19919;-63
2023/05/15 01:14:51;;;;;;;0.20;0.20;;;;;;;16.59;69.54;101538.94;5071037;28;20115;-63
2023/05/15 01:17:16;;;;;;;0.20;0.20;;;;;;;17.23;67.63;101529.28;5071191;28;20846;-62
2023/05/15 01:19:43;;;;;;;0.20;0.20;;;;;;;16.96;68.46;101529.16;5071633;28;20124;-62
2023/05/15 01:22:30;;;;;;;0.10;0.10;;;;;;;16.10;72.68;101532.38;5075233;28;20040;-62
2023/05/15 01:25:40;;;;;;;0.10;0.10;;;;;;;16.86;70.13;101525.50;5075410;28;20029;-63
2023/05/15 01:28:11;;;;;;;0.10;0.10;;;;;;;16.35;70.90;101513.03;4973468;28;20076;-63
2023/05/15 01:30:41;;;;;;;0.20;0.20;;;;;;;17.42;67.61;101511.56;4973779;28;20030;-63
2023/05/15 01:33:27;;;;;;;0.10;0.10;;;;;;;16.61;69.18;101521.34;4973819;28;20390;-62
2023/05/15 01:36:15;;;;;;;0.15;0.15;;;;;;;15.90;72.58;101521.19;4938338;29;20040;-61
2023/05/15 01:38:47;;;;;;;0.20;0.20;;;;;;;16.14;71.80;101522.69;4954375;28;20102;-62
2023/05/15 01:41:24;;;;;;;0.20;0.20;;;;;;;15.96;72.23;101527.53;4954212;28;20087;-62
2023/05/15 01:44:16;;;;;;;0.20;0.20;;;;;;;15.69;73.27;101519.16;4967079;28;20047;-61
2023/05/15 01:46:45;;;;;;;0.20;0.20;;;;;;;15.74;72.66;101527.41;4992515;28;20130;-62
2023/05/15 01:49:12;;;;;;;0.15;0.15;;;;;;;15.72;72.73;101524.91;4990295;28;20053;-62
2023/05/15 01:51:39;;;;;;;0.20;0.20;;;;;;;16.40;69.56;101519.34;4985892;28;20050;-62
2023/05/15 01:54:07;;;;;;;0.20;0.20;;;;;;;15.12;74.90;101528.25;4990105;28;20113;-63
2023/05/15 01:56:34;;;;;;;0.30;0.30;;;;;;;15.22;74.80;101526.59;4992498;28;20455;-60
2023/05/15 01:59:03;;;;;;;0.30;0.30;;;;;;;15.76;72.51;101525.28;4991979;28;20030;-62
2023/05/15 02:01:31;;;;;;;0.25;0.25;;;;;;;15.92;72.19;101520.97;4953511;28;20515;-63
2023/05/15 02:03:56;;;;;;;0.17;0.17;;;;;;;15.88;71.79;101525.22;4979699;28;20569;-62
2023/05/15 02:06:23;;;;;;;0.10;0.10;;;;;;;15.91;72.11;101527.44;5034777;28;20059;-62
2023/05/15 02:08:49;;;;;;;0.20;0.20;;;;;;;16.01;71.46;101528.44;5033470;28;20803;-62
2023/05/15 02:11:14;;;;;;;0.10;0.10;;;;;;;16.39;69.43;101519.59;5034097;28;20033;-64
2023/05/15 02:13:41;;;;;;;0.20;0.20;;;;;;;16.76;67.57;101525.34;5033421;28;20107;-63
2023/05/15 02:16:07;;;;;;;0.30;0.30;;;;;;;16.49;68.42;101517.88;5033551;28;20051;-64
2023/05/15 02:18:32;;;;;;;0.22;0.22;;;;;;;16.89;66.57;101523.09;5033466;28;20441;-63
2023/05/15 02:20:59;;;;;;;0.10;0.10;;;;;;;17.34;64.63;101510.13;5034800;28;20036;-62
2023/05/15 02:23:25;;;;;;;0.30;0.30;;;;;;;17.59;63.62;101506.94;5033994;28;20083;-62
2023/05/15 02:26:07;;;;;;;0.10;0.10;;;;;;;17.74;63.10;101503.53;5033874;28;20037;-63
2023/05/15 02:28:42;;;;;;;0.20;0.20;;;;;;;16.92;65.47;101503.63;5032948;28;20136;-63
2023/05/15 02:31:32;;;;;;;0.20;0.20;;;;;;;17.40;64.16;101500.97;5033436;28;20029;-62
2023/05/15 02:34:02;;;;;;;0.30;0.30;;;;;;;17.08;65.05;101494.56;5037263;28;20150;-64
2023/05/15 02:36:32;;;;;;;0.10;0.10;;;;;;;17.28;64.00;101504.88;5053525;28;20056;-63
2023/05/15 02:38:59;;;;;;;0.10;0.10;;;;;;;17.00;65.00;101496.94;5054012;28;20035;-62
2023/05/15 02:41:26;;;;;;;0.20;0.20;;;;;;;17.33;63.41;101496.81;5053554;28;20504;-64
2023/05/15 02:43:54;;;;;;;0.10;0.10;;;;;;;17.35;63.51;101489.22;5035720;28;20033;-63
2023/05/15 02:46:20;;;;;;;0.20;0.20;;;;;;;17.17;63.18;101492.25;5053343;28;20160;-62
2023/05/15 02:48:47;;;;;;;0.10;0.10;;;;;;;16.64;65.43;101491.00;5053216;28;20041;-64
2023/05/15 02:51:12;;;;;;;0.20;0.20;;;;;;;17.10;64.13;101489.72;5054318;28;20029;-63
2023/05/15 02:53:39;;;;;;;0.28;0.28;;;;;;;17.29;63.47;101482.09;5053485;28;20052;-63
2023/05/15 02:56:06;;;;;;;0.20;0.20;;;;;;;16.92;64.15;101498.19;5053152;28;20025;-62
2023/05/15 02:58:31;;;;;;;0.20;0.20;;;;;;;15.93;68.50;101511.75;5053290;28;20045;-62
2023/05/15 03:00:57;;;;;;;0.20;0.20;;;;;;;15.78;69.89;101504.19;5053161;28;20481;-61
2023/05/15 03:03:22;;;;;;;0.30;0.30;;;;;;;15.45;70.39;101512.22;5053498;28;20024;-63
2023/05/15 03:05:47;;;;;;;0.20;0.20;;;;;;;15.08;71.84;101514.38;5053106;28;20133;-63
2023/05/15 03:08:13;;;;;;;0.10;0.10;;;;;;;15.35;70.70;101518.19;5053312;28;20083;-63
2023/05/15 03:10:39;;;;;;;0.10;0.10;;;;;;;15.19;72.85;101526.25;5053052;28;20492;-64
2023/05/15 03:13:04;;;;;;;0.20;0.20;;;;;;;14.82;74.72;101533.81;5053069;28;20040;-62
2023/05/15 03:15:29;;;;;;;0.10;0.10;;;;;;;15.12;74.92;101533.66;5052959;28;20028;-62
2023/05/15 03:17:55;;;;;;;0.30;0.30;;;;;;;14.96;75.07;101532.50;5053526;28;20020;-61
2023/05/15 03:20:20;;;;;;;0.20;0.20;;;;;;;16.18;70.30;101531.16;5052798;28;20033;-61
2023/05/15 03:22:45;;;;;;;0.20;0.20;;;;;;;15.66;70.96;101528.59;5052954;28;20186;-63
2023/05/15 03:25:11;;;;;;;0.20;0.20;;;;;;;15.39;72.70;101524.78;5053080;28;20516;-63
2023/05/15 03:27:36;;;;;;;0.20;0.20;;;;;;;16.33;69.25;101529.53;5052840;28;20025;-62
2023/05/15 03:30:03;;;;;;;0.10;0.10;;;;;;;16.76;66.83;101530.78;5053306;28;20025;-62
2023/05/15 03:32:28;;;;;;;0.10;0.10;;;;;;;15.17;73.25;101526.50;5052531;28;20390;-62
2023/05/15 03:34:54;;;;;;;0.30;0.30;;;;;;;14.98;75.03;101527.69;5052841;28;20063;-62
2023/05/15 03:37:19;;;;;;;0.20;0.20;;;;;;;14.99;74.24;101518.53;5052504;28;20040;-63
2023/05/15 03:39:44;;;;;;;0.20;0.20;;;;;;;15.27;73.15;101520.47;5052894;28;20032;-62
2023/05/15 03:42:10;;;;;;;0.22;0.22;;;;;;;16.14;70.12;101522.69;5052489;28;20071;-62
2023/05/15 03:44:35;;;;;;;0.20;0.20;;;;;;;15.76;71.70;101526.06;5046781;28;20044;-62
2023/05/15 03:47:01;;;;;;;0.13;0.13;;;;;;;15.66;72.20;101522.38;5052116;28;20033;-62
2023/05/15 03:49:26;;;;;;;0.30;0.30;;;;;;;15.92;70.46;101508.19;5059057;28;20536;-64
2023/05/15 03:51:51;;;;;;;0.20;0.20;;;;;;;15.84;69.82;101512.13;5072178;28;20032;-64
2023/05/15 03:54:17;;;;;;;0.17;0.17;;;;;;;16.55;68.45;101510.66;5072694;28;20224;-63
2023/05/15 03:56:42;;;;;;;1.17;0.30;;;;;;;16.81;66.90;101503.69;5071940;28;20036;-64
2023/05/15 03:59:08;;;;;;;0.20;0.20;;;;;;;16.51;67.37;101502.19;5072140;28;20037;-63
2023/05/15 04:01:33;;;;;;;0.20;0.20;;;;;;;15.87;70.42;101499.16;5072057;28;20055;-63
2023/05/15 04:03:58;;;;;;;0.20;0.20;;;;;;;16.04;69.29;101498.13;5071986;28;20458;-63
2023/05/15 04:06:24;;;;;;;0.20;0.20;;;;;;;16.03;69.04;101510.06;5072444;28;20088;-62
2023/05/15 04:08:49;;;;;;;0.10;0.10;;;;;;;16.14;67.96;101511.84;5053720;28;20090;-62
2023/05/15 04:11:15;;;;;;;0.20;0.20;;;;;;;16.32;68.41;101503.47;5071910;28;20135;-64
2023/05/15 04:13:40;;;;;;;0.20;0.20;;;;;;;16.52;66.21;101503.84;5071851;28;20086;-62
2023/05/15 04:16:07;;;;;;;0.20;0.20;;;;;;;15.87;69.39;101505.41;5063248;28;20106;-63
2023/05/15 04:18:32;;;;;;;0.10;0.10;;;;;;;16.54;67.47;101490.84;5051939;28;20350;-63
2023/05/15 04:20:58;;;;;;;0.15;0.15;;;;;;;17.11;64.56;101495.97;5052330;28;20031;-64
2023/05/15 04:23:23;;;;;;;0.20;0.20;;;;;;;15.69;69.49;101501.03;5051786;28;20029;-64
2023/05/15 04:25:51;;;;;;;0.20;0.20;;;;;;;15.95;68.03;101505.03;5051904;28;20029;-63
2023/05/15 04:28:18;;;;;;;0.20;0.20;;;;;;;15.96;68.62;101508.56;5051258;28;20037;-63
2023/05/15 04:30:44;;;;;;;0.20;0.20;;;;;;;15.90;69.66;101510.34;5034232;28;20091;-62
2023/05/15 04:33:09;;;;;;;0.30;0.30;;;;;;;16.57;66.95;101519.34;5052018;28;20021;-63
2023/05/15 04:35:35;;;;;;;0.15;0.15;;;;;;;16.43;67.61;101518.84;5070647;28;20052;-63
2023/05/15 04:38:01;;;;;;;0.10;0.10;;;;;;;15.79;68.77;101517.47;5071540;28;20373;-62
2023/05/15 04:40:26;;;;;;;0.20;0.20;;;;;;;15.82;69.56;101516.19;5071142;28;20046;-63
2023/05/15 04:42:51;;;;;;;0.30;0.30;;;;;;;16.01;68.55;101512.19;5063190;28;20366;-64
2023/05/15 04:45:17;;;;;;;0.20;0.20;;;;;;;15.91;68.14;101517.41;5054318;28;20268;-62
2023/05/15 04:47:43;;;;;;;0.13;0.13;;;;;;;16.64;66.10;101511.88;5070648;28;20054;-62
2023/05/15 04:50:08;;;;;;;0.20;0.20;;;;;;;16.48;66.22;101515.41;5068475;28;20638;-63
2023/05/15 04:52:33;;;;;;;0.20;0.20;;;;;;;16.34;66.48;101509.50;5070989;28;20045;-63
2023/05/15 04:54:59;;;;;;;0.20;0.20;;;;;;;16.11;68.59;101522.38;5070730;28;20093;-62
2023/05/15 04:57:25;;;;;;;0.20;0.20;;;;;;;16.20;67.63;101520.91;5071220;28;20028;-63
2023/05/15 04:59:50;;;;;;;0.30;0.30;;;;;;;16.23;68.35;101526.66;5070899;28;20032;-62
2023/05/15 05:02:21;;;;;;;0.10;0.10;;;;;;;15.65;71.05;101531.56;5071021;28;20055;-63
2023/05/15 05:04:47;;;;;;;0.10;0.10;;;;;;;15.66;69.59;101535.91;5070461;28;20037;-62
2023/05/15 05:07:12;;;;;;;0.15;0.15;;;;;;;16.74;65.61;101536.47;5069513;28;20031;-63
2023/05/15 05:09:41;;;;;;;0.10;0.10;;;;;;;16.13;68.53;101545.47;5070326;28;20036;-64
2023/05/15 05:12:07;;;;;;;0.20;0.20;;;;;;;15.76;68.79;101546.97;5070976;28;20036;-62
2023/05/15 05:14:32;;;;;;;0.20;0.20;;;;;;;16.04;68.07;101555.06;5070928;28;20119;-63
2023/05/15 05:16:58;;;;;;;0.20;0.20;;;;;;;15.85;68.90;101542.78;5069616;28;20086;-63
2023/05/15 05:19:23;;;;;;;0.30;0.30;;;;;;;15.92;68.92;101550.78;5069668;28;20032;-64
2023/05/15 05:21:49;;;;;;;0.20;0.20;;;;;;;16.67;66.58;101543.94;5071100;28;20540;-63
2023/05/15 05:24:14;;;;;;;0.15;0.15;;;;;;;15.76;68.76;101549.66;5070750;28;20023;-62
2023/05/15 05:26:43;;;;;;;0.20;0.20;;;;;;;16.44;66.86;101550.34;5069759;28;20132;-63
2023/05/15 05:29:08;;;;;;;0.20;0.20;;;;;;;16.08;67.26;101548.09;5070081;28;20516;-63
2023/05/15 05:31:34;;;;;;;0.10;0.10;;;;;;;15.75;67.06;101545.28;5070392;28;20086;-62
2023/05/15 05:33:59;;;;;;;0.20;0.20;;;;;;;15.87;68.18;101545.25;5069624;28;20044;-61
2023/05/15 05:36:25;;;;;;;0.20;0.20;;;;;;;16.44;66.43;101547.63;5071483;28;20028;-62
2023/05/15 05:38:50;;;;;;;0.20;0.20;;;;;;;16.95;63.93;101543.81;5070141;28;20033;-62
2023/05/15 05:41:16;;;;;;;0.20;0.20;;;;;;;16.60;65.19;101537.88;5070477;28;20028;-62
2023/05/15 05:43:41;;;;;;;0.30;0.30;;;;;;;17.31;62.63;101545.13;5070289;28;20043;-63
2023/05/15 05:46:06;;;;;;;0.10;0.10;;;;;;;17.05;63.31;101543.97;5069564;28;20129;-62
2023/05/15 05:48:32;;;;;;;0.10;0.10;;;;;;;16.91;64.62;101539.13;5069323;28;20033;-63
2023/05/15 05:50:57;;;;;;;0.20;0.20;;;;;;;17.02;63.24;101544.47;5070212;28;20048;-62
2023/05/15 05:53:23;;;;;;;0.10;0.10;;;;;;;16.46;66.05;101537.34;5070292;28;20475;-63
2023/05/15 05:55:48;;;;;;;0.20;0.20;;;;;;;16.62;65.88;101533.03;5070796;28;20047;-62
2023/05/15 05:58:16;;;;;;;0.17;0.17;;;;;;;16.48;66.67;101531.69;5070676;28;20035;-61
2023/05/15 06:00:41;;;;;;;0.20;0.20;;;;;;;16.91;65.11;101531.81;5070303;28;20077;-62
2023/05/15 06:03:07;;;;;;;0.20;0.20;;;;;;;16.07;67.58;101541.03;5071247;28;20028;-62
2023/05/15 06:05:33;;;;;;;0.20;0.20;;;;;;;16.64;65.16;101530.88;5070554;28;20032;-62
2023/05/15 06:08:00;;;;;;;0.10;0.10;;;;;;;17.42;63.24;101541.47;5074107;28;20036;-62
2023/05/15 06:10:25;;;;;;;0.20;0.20;;;;;;;17.13;64.82;101540.81;5074367;28;20036;-64
2023/05/15 06:12:51;;;;;;;0.20;0.20;;;;;;;17.79;61.33;101542.47;5073975;28;20033;-63
2023/05/15 06:15:16;;;;;;;0.10;0.10;;;;;;;17.88;62.25;101542.84;5062934;28;20354;-61
2023/05/15 06:17:41;;;;;;;0.20;0.20;;;;;;;17.64;62.94;101536.03;5067747;28;20171;-62
2023/05/15 06:20:08;;;;;;;0.10;0.10;;;;;;;17.80;61.39;101544.13;5065738;28;20038;-63
2023/05/15 06:22:35;;;;;;;0.20;0.20;;;;;;;18.58;59.65;101531.78;5068751;28;20024;-62
2023/05/15 06:25:01;;;;;;;0.20;0.20;;;;;;;17.72;61.53;101533.69;5067303;28;20090;-62
2023/05/15 06:27:28;;;;;;;0.17;0.17;;;;;;;17.12;63.21;101532.94;5067839;28;20039;-62
2023/05/15 06:29:53;;;;;;;0.20;0.20;;;;;;;17.32;63.70;101528.56;5067835;28;20036;-63
2023/05/15 06:32:18;;;;;;;0.10;0.10;;;;;;;18.24;60.54;101518.44;5066526;28;20067;-61
2023/05/15 06:34:44;;;;;;;0.10;0.10;;;;;;;17.83;61.25;101529.19;5068060;28;20377;-63
2023/05/15 06:37:10;;;;;;;0.10;0.10;;;;;;;17.57;63.19;101530.81;5066531;28;20040;-64
2023/05/15 06:39:36;;;;;;;0.20;0.20;;;;;;;18.13;61.38;101526.75;5071504;28;20033;-63
2023/05/15 06:42:01;;;;;;;0.10;0.10;;;;;;;17.91;62.56;101524.09;5071816;28;20043;-62
2023/05/15 06:44:27;;;;;;;0.20;0.20;;;;;;;18.19;61.78;101525.72;5066857;28;20052;-63
2023/05/15 06:46:53;;;;;;;0.20;0.20;;;;;;;19.07;58.97;101530.47;5071481;28;20024;-62
2023/05/15 06:49:18;;;;;;;0.20;0.20;;;;;;;18.78;59.62;101531.94;5071893;28;20037;-63
2023/05/15 06:51:44;;;;;;;0.10;0.10;;;;;;;18.45;60.63;101526.81;5071746;28;20033;-65
2023/05/15 06:54:09;;;;;;;0.10;0.10;;;;;;;18.78;59.36;101526.50;5071283;28;20135;-63
2023/05/15 06:56:35;;;;;;;0.10;0.10;;;;;;;19.16;58.79;101532.41;5071385;28;20056;-62
2023/05/15 06:59:00;;;;;;;0.20;0.20;;;;;;;18.79;59.17;101530.88;5071085;28;20028;-63
2023/05/15 07:01:25;;;;;;;0.13;0.13;;;;;;;19.18;58.57;101521.28;5071771;28;20376;-61
2023/05/15 07:03:51;;;;;;;0.20;0.20;;;;;;;18.52;60.39;101527.38;5063688;28;20040;-63
2023/05/15 07:06:16;;;;;;;0.20;0.20;;;;;;;17.79;62.43;101536.22;5069794;28;20037;-63
2023/05/15 07:08:42;;;;;;;0.20;0.20;;;;;;;17.95;62.22;101529.84;5069736;28;20037;-62
2023/05/15 07:11:07;;;;;;;0.10;0.10;;;;;;;18.27;61.50;101519.81;5053822;28;20025;-63
2023/05/15 07:13:33;;;;;;;0.10;0.10;;;;;;;18.55;60.46;101524.16;5068856;28;20577;-63
2023/05/15 07:15:59;;;;;;;0.17;0.17;;;;;;;19.40;57.13;101521.13;5069110;28;20087;-62
2023/05/15 07:18:24;;;;;;;0.20;0.20;;;;;;;18.73;59.46;101518.31;5068481;28;20020;-63
2023/05/15 07:20:50;;;;;;;0.20;0.20;;;;;;;19.73;56.39;101516.06;5069202;28;20031;-62
2023/05/15 07:23:15;;;;;;;0.10;0.10;;;;;;;18.74;58.52;101514.47;5070577;28;20542;-63
2023/05/15 07:25:40;;;;;;;0.20;0.20;;;;;;;18.29;60.37;101521.22;5070648;28;20020;-62
2023/05/15 07:28:06;;;;;;;0.10;0.10;;;;;;;17.45;63.08;101525.47;5069330;28;20098;-62
2023/05/15 07:30:31;;;;;;;0.20;0.20;;;;;;;19.09;58.66;101515.50;5069667;28;20029;-63
2023/05/15 07:32:57;;;;;;;0.20;0.20;;;;;;;19.75;56.60;101510.34;5067899;28;20033;-64
2023/05/15 07:35:22;;;;;;;0.13;0.13;;;;;;;18.72;59.97;101520.19;5068745;28;20025;-63
2023/05/15 07:37:48;;;;;;;0.17;0.17;;;;;;;18.35;60.70;101524.78;5069797;28;20021;-63
2023/05/15 07:40:14;;;;;;;0.20;0.20;;;;;;;19.47;58.05;101519.78;5068627;28;20020;-63
2023/05/15 07:42:41;;;;;;;0.10;0.10;;;;;;;17.95;61.48;101524.41;5068814;28;20024;-63
2023/05/15 07:45:07;;;;;;;0.10;0.10;;;;;;;18.26;61.41;101516.28;5067148;28;20246;-63
2023/05/15 07:47:32;;;;;;;0.10;0.10;;;;;;;18.64;59.98;101520.69;5067077;28;20036;-63
2023/05/15 07:49:57;;;;;;;0.10;0.10;;;;;;;18.58;60.61;101524.44;5066494;28;20052;-62
2023/05/15 07:52:23;;;;;;;0.10;0.10;;;;;;;18.33;61.81;101516.88;5068063;28;20047;-62
2023/05/15 07:54:48;;;;;;;0.10;0.10;;;;;;;17.95;62.14;101530.69;5066881;28;20037;-63
2023/05/15 07:57:14;;;;;;;0.10;0.10;;;;;;;18.16;61.48;101528.97;5067175;28;20032;-64
2023/05/15 07:59:40;;;;;;;0.20;0.20;;;;;;;18.18;62.26;101529.56;5065792;28;20373;-63
2023/05/15 08:02:05;;;;;;;0.10;0.10;;;;;;;18.60;59.70;101521.47;5067762;28;20400;-63
2023/05/15 08:04:31;;;;;;;0.10;0.10;;;;;;;18.62;59.43;101513.84;5068020;28;20022;-62
2023/05/15 08:06:56;;;;;;;0.28;0.28;;;;;;;19.07;59.67;101520.41;5067040;28;20032;-62
2023/05/15 08:09:22;;;;;;;0.10;0.10;;;;;;;18.98;59.09;101518.44;5067359;28;20036;-62
2023/05/15 08:11:47;;;;;;;0.20;0.20;;;;;;;19.20;58.74;101508.22;5068099;28;20042;-62
2023/05/15 08:14:12;;;;;;;0.20;0.20;;;;;;;18.94;57.42;101514.59;5066576;28;20043;-64
2023/05/15 08:16:38;;;;;;;0.10;0.10;;;;;;;20.02;54.58;101511.75;5067457;28;20078;-62
2023/05/15 08:19:06;;;;;;;0.20;0.20;;;;;;;19.22;57.26;101514.22;5066499;28;20385;-62
2023/05/15 08:21:31;;;;;;;0.13;0.13;;;;;;;19.67;56.38;101511.69;5066788;28;20036;-61
2023/05/15 08:23:58;;;;;;;0.20;0.20;;;;;;;19.98;54.31;101513.38;5067345;28;20032;-62
2023/05/15 08:26:23;;;;;;;0.15;0.15;;;;;;;19.76;56.63;101512.78;5064442;28;20119;-62
2023/05/15 08:28:49;;;;;;;0.13;0.13;;;;;;;20.81;52.91;101509.25;5067561;28;20465;-62
2023/05/15 08:31:15;;;;;;;0.10;0.10;;;;;;;20.54;53.95;101502.50;5066390;28;20532;-63
2023/05/15 08:33:40;;;;;;;0.10;0.10;;;;;;;19.92;55.26;101508.19;5066692;28;20036;-61
2023/05/15 08:36:06;;;;;;;0.10;0.10;;;;;;;20.28;54.45;101504.41;5066564;28;20522;-62
2023/05/15 08:38:32;;;;;;;0.20;0.20;;;;;;;20.34;54.78;101511.53;5066249;28;20032;-62
2023/05/15 08:41:05;;;;;;;0.10;0.10;;;;;;;19.37;57.57;101505.28;5067868;28;20039;-64
2023/05/15 08:43:34;;;;;;;0.10;0.10;;;;;;;19.38;56.92;101496.84;5065969;28;20111;-61
2023/05/15 08:46:00;;;;;;;0.20;0.20;;;;;;;20.05;55.71;101496.72;5066748;28;20043;-63
2023/05/15 08:48:28;;;;;;;0.20;0.20;;;;;;;20.98;53.49;101496.09;5066621;28;20078;-62
2023/05/15 08:50:56;;;;;;;0.15;0.15;;;;;;;20.77;53.17;101500.00;5066459;28;20082;-63
2023/05/15 08:53:22;;;;;;;0.10;0.10;;;;;;;20.20;54.41;101498.69;5066558;28;20025;-63
2023/05/15 08:55:49;;;;;;;0.10;0.10;;;;;;;20.22;54.81;101502.78;5066052;28;20039;-63
2023/05/15 08:58:15;;;;;;;0.10;0.10;;;;;;;20.15;54.53;101494.81;5065167;28;20028;-62
2023/05/15 09:00:41;;;;;;;0.10;0.10;;;;;;;20.87;54.55;101499.94;5068401;28;20025;-62
2023/05/15 09:03:13;;;;;;;0.20;0.20;;;;;;;20.41;55.41;101503.84;5066681;28;20028;-63
2023/05/15 09:05:38;;;;;;;0.20;0.20;;;;;;;20.29;55.52;101494.28;5064742;28;20048;-63
2023/05/15 09:08:05;;;;;;;0.10;0.10;;;;;;;21.05;53.46;101505.97;5066943;28;20024;-62
2023/05/15 09:10:32;;;;;;;0.20;0.20;;;;;;;19.65;57.96;101494.78;5066680;28;20028;-63
2023/05/15 09:13:00;;;;;;;0.10;0.10;;;;;;;20.71;55.58;101503.00;5065368;28;20067;-63
2023/05/15 09:15:26;;;;;;;0.10;0.10;;;;;;;21.80;52.29;101500.09;5063737;28;20075;-65
2023/05/15 09:17:53;;;;;;;0.10;0.10;;;;;;;20.56;54.84;101492.13;5059797;28;20020;-65
2023/05/15 09:20:25;;;;;;;0.10;0.10;;;;;;;19.82;57.12;101489.88;5067687;28;20024;-65
2023/05/15 09:22:51;;;;;;;0.20;0.20;;;;;;;20.09;57.09;101501.38;5066287;28;20132;-63
2023/05/15 09:25:41;;;;;;;0.10;0.10;;;;;;;21.06;53.96;101504.84;5067836;28;20115;-63
2023/05/15 09:28:24;;;;;;;0.10;0.10;;;;;;;22.00;51.68;101502.75;5065604;28;20566;-63
2023/05/15 09:30:56;;;;;;;0.22;0.22;;;;;;;20.55;54.68;101502.22;5065890;28;20559;-64
2023/05/15 09:33:34;;;;;;;0.17;0.17;;;;;;;20.36;54.90;101513.97;5067253;28;20029;-62
2023/05/15 09:36:00;;;;;;;0.20;0.20;;;;;;;20.82;53.81;101502.69;5066808;28;20036;-63
2023/05/15 09:38:26;;;;;;;0.10;0.10;;;;;;;21.36;53.12;101497.38;5064903;28;20078;-62
2023/05/15 09:41:01;;;;;;;0.10;0.10;;;;;;;21.46;52.40;101504.69;5049706;28;20041;-65
2023/05/15 09:43:34;;;;;;;0.10;0.10;;;;;;;21.93;52.69;101495.97;5067170;28;20131;-64
2023/05/15 09:45:59;;;;;;;0.10;0.10;;;;;;;22.20;51.82;101501.78;5069867;28;20040;-63
2023/05/15 09:48:25;;;;;;;0.10;0.10;;;;;;;22.21;51.60;101498.75;5052790;28;20442;-62
2023/05/15 09:50:50;;;;;;;0.10;0.10;;;;;;;19.83;55.62;101496.16;5068477;28;20032;-61
2023/05/15 09:53:16;;;;;;;0.10;0.10;;;;;;;21.20;53.90;101501.25;5069705;28;20095;-63
2023/05/15 09:55:44;;;;;;;0.10;0.10;;;;;;;21.08;52.06;101505.38;5069119;28;20032;-62
2023/05/15 09:58:12;;;;;;;0.10;0.10;;;;;;;21.40;53.07;101498.44;5067867;28;20033;-63
2023/05/15 10:00:39;;;;;;;0.20;0.20;;;;;;;21.88;50.34;101507.75;5069161;28;20032;-62
2023/05/15 10:03:05;;;;;;;0.10;0.10;;;;;;;21.49;51.80;101499.47;5052158;28;20056;-64
2023/05/15 10:05:31;;;;;;;0.20;0.20;;;;;;;20.84;54.37;101488.75;5069716;28;20029;-62
2023/05/15 10:07:58;;;;;;;0.10;0.10;;;;;;;20.82;53.34;101499.16;5068908;28;20039;-63
2023/05/15 10:10:24;;;;;;;0.10;0.10;;;;;;;20.02;55.95;101500.00;5068498;28;20032;-62
2023/05/15 10:12:51;;;;;;;0.10;0.10;;;;;;;21.60;51.99;101503.78;5070028;28;20044;-63
2023/05/15 10:15:17;;;;;;;0.10;0.10;;;;;;;22.24;49.92;101503.66;5069766;28;20032;-63
2023/05/15 10:17:45;;;;;;;0.10;0.10;;;;;;;22.48;49.49;101514.69;5070383;28;20039;-63
2023/05/15 10:20:12;;;;;;;0.10;0.10;;;;;;;22.19;49.65;101513.84;5072150;28;20017;-64
2023/05/15 10:22:43;;;;;;;0.10;0.10;;;;;;;21.29;51.67;101504.22;5071099;28;20056;-63
2023/05/15 10:25:17;;;;;;;0.10;0.10;;;;;;;20.98;52.85;101500.75;5070687;28;20036;-62
2023/05/15 10:27:45;;;;;;;0.10;0.10;;;;;;;21.39;52.48;101506.91;5070874;28;20086;-61
2023/05/15 10:30:14;;;;;;;0.10;0.10;;;;;;;21.69;51.86;101509.50;5070718;28;20037;-64
2023/05/15 10:32:41;;;;;;;0.10;0.10;;;;;;;21.52;51.09;101506.31;5071033;28;20047;-65
2023/05/15 10:35:09;;;;;;;0.10;0.10;;;;;;;20.43;52.81;101512.59;5071146;28;20043;-65
2023/05/15 10:37:35;;;;;;;0.10;0.10;;;;;;;20.20;53.36;101509.59;5053149;28;20028;-63
2023/05/15 10:40:02;;;;;;;0.20;0.20;;;;;;;21.28;50.64;101522.56;5070746;28;20036;-63
2023/05/15 10:42:28;;;;;;;0.10;0.10;;;;;;;21.09;51.70;101513.31;5070701;28;20387;-63
2023/05/15 10:44:58;;;;;;;0.10;0.10;;;;;;;22.19;48.21;101514.63;5068526;28;20054;-62
2023/05/15 10:47:25;;;;;;;0.17;0.17;;;;;;;21.98;48.60;101515.06;5069887;28;20028;-64
2023/05/15 10:49:51;;;;;;;0.10;0.10;;;;;;;22.21;48.37;101500.69;5068855;28;20048;-62
2023/05/15 10:52:16;;;;;;;0.10;0.10;;;;;;;22.05;49.74;101504.63;5070204;28;20082;-63
2023/05/15 10:54:41;;;;;;;0.20;0.20;;;;;;;22.05;49.01;101507.38;5068830;28;20071;-63
2023/05/15 10:57:07;;;;;;;0.10;0.10;;;;;;;22.38;47.71;101506.56;5052206;28;20500;-64
2023/05/15 10:59:33;;;;;;;0.10;0.10;;;;;;;21.77;45.53;101497.94;5071235;28;20012;-63
2023/05/15 11:02:25;;;;;;;0.10;0.10;;;;;;;22.09;44.44;101509.25;5070294;28;20392;-63
2023/05/15 11:05:01;;;;;;;0.10;0.10;;;;;;;21.34;46.03;101499.56;5070685;28;20028;-62
2023/05/15 11:07:27;;;;;;;0.10;0.10;;;;;;;21.58;47.57;101503.25;5070720;28;20044;-63
2023/05/15 11:09:53;;;;;;;0.10;0.10;;;;;;;21.37;48.00;101503.63;5068559;28;20600;-63
2023/05/15 11:12:19;;;;;;;0.10;0.10;;;;;;;21.24;46.52;101502.34;5060189;28;20408;-65
2023/05/15 11:14:50;;;;;;;0.20;0.20;;;;;;;21.32;46.51;101492.72;5069285;28;20113;-64
2023/05/15 11:17:16;;;;;;;0.10;0.10;;;;;;;20.79;48.00;101503.28;5070324;28;20074;-64
2023/05/15 11:19:48;;;;;;;0.05;0.05;;;;;;;21.31;46.18;101515.69;5069839;28;20053;-63
2023/05/15 11:22:13;;;;;;;0.10;0.10;;;;;;;21.18;47.98;101499.88;5070057;28;20037;-64
2023/05/15 11:24:56;;;;;;;0.13;0.13;;;;;;;22.31;46.88;101501.41;5069673;28;20588;-64